Time,TemperatureF,DewpointF,PressureIn,WindDirection,WindDirectionDegrees,WindSpeedMPH,WindSpeedGustMPH,Humidity,HourlyPrecipIn,Conditions,Clouds,dailyrainin,SoftwareType,DateUTC
2013-03-31 00:01:00,30.2,27.1,29.96,SE,135,0.0,0.0,88,0.00,,,0.00,pywws,2013-03-31 00:01:00,
2013-03-31 00:06:00,29.7,26.6,29.96,SE,135,0.0,0.0,88,0.00,,,0.00,pywws,2013-03-31 00:06:00,
2013-03-31 00:12:00,29.3,26.2,29.96,SE,135,0.0,0.0,88,0.00,,,0.00,pywws,2013-03-31 00:12:00,
2013-03-31 00:17:00,29.1,26.0,29.96,SE,135,0.0,0.0,88,0.00,,,0.00,pywws,2013-03-31 00:17:00,
2013-03-31 00:23:00,28.9,25.8,29.96,SE,135,0.0,0.7,88,0.00,,,0.00,pywws,2013-03-31 00:23:00,
2013-03-31 00:29:00,28.6,25.5,29.96,SE,135,0.0,0.0,88,0.00,,,0.00,pywws,2013-03-31 00:29:00,
2013-03-31 00:34:00,28.2,25.4,29.96,SE,135,0.0,0.0,89,0.00,,,0.00,pywws,2013-03-31 00:34:00,
2013-03-31 00:40:00,27.9,25.0,29.96,SE,135,0.0,0.0,89,0.00,,,0.00,pywws,2013-03-31 00:40:00,
2013-03-31 00:45:00,27.7,24.9,29.96,SE,135,0.0,0.0,89,0.00,,,0.00,pywws,2013-03-31 00:45:00,
2013-03-31 00:51:00,27.3,24.5,29.96,SE,135,0.0,0.0,89,0.00,,,0.00,pywws,2013-03-31 00:51:00,
2013-03-31 00:57:00,27.1,24.6,29.96,SE,135,0.0,0.0,90,0.00,,,0.00,pywws,2013-03-31 00:57:00,
2013-03-31 02:02:00,27.1,24.6,29.96,SE,135,0.0,0.0,90,0.00,,,0.00,pywws,2013-03-31 01:02:00,
2013-03-31 02:08:00,27.0,24.7,29.96,SE,135,0.0,0.0,91,0.00,,,0.00,pywws,2013-03-31 01:08:00,
2013-03-31 02:13:00,27.0,24.7,29.96,SE,135,0.0,0.0,91,0.00,,,0.00,pywws,2013-03-31 01:13:00,
2013-03-31 02:19:00,26.6,24.3,29.96,SE,135,0.0,0.0,91,0.00,,,0.00,pywws,2013-03-31 01:19:00,
2013-03-31 02:25:00,26.4,24.2,29.96,SE,135,0.0,0.0,91,0.00,,,0.00,pywws,2013-03-31 01:25:00,
2013-03-31 02:30:00,26.2,24.0,29.96,SE,135,0.0,0.0,91,0.00,,,0.00,pywws,2013-03-31 01:30:00,
2013-03-31 02:36:00,26.4,24.4,29.96,SE,135,0.0,0.0,92,0.00,,,0.00,pywws,2013-03-31 01:36:00,
2013-03-31 02:41:00,26.6,24.6,29.96,SE,135,0.0,0.0,92,0.00,,,0.00,pywws,2013-03-31 01:41:00,
2013-03-31 02:47:00,26.2,24.2,29.96,SE,135,0.0,0.0,92,0.00,,,0.00,pywws,2013-03-31 01:47:00,
2013-03-31 02:53:00,25.9,23.9,29.96,SE,135,0.0,0.0,92,0.00,,,0.00,pywws,2013-03-31 01:53:00,
2013-03-31 02:58:00,25.7,23.7,29.96,SE,135,0.0,0.0,92,0.00,,,0.00,pywws,2013-03-31 01:58:00,
2013-03-31 03:04:00,25.5,23.8,29.97,SE,135,0.0,0.0,93,0.00,,,0.00,pywws,2013-03-31 02:04:00,
2013-03-31 03:10:00,25.5,23.8,29.97,SE,135,0.0,0.0,93,0.00,,,0.00,pywws,2013-03-31 02:10:00,
2013-03-31 03:16:00,25.5,23.8,29.97,SE,135,0.0,0.0,93,0.00,,,0.00,pywws,2013-03-31 02:16:00,
2013-03-31 03:21:00,25.5,24.0,29.97,SE,135,0.0,0.0,94,0.00,,,0.00,pywws,2013-03-31 02:21:00,
2013-03-31 03:26:00,25.5,24.0,29.96,West,270,0.0,0.0,94,0.00,,,0.00,pywws,2013-03-31 02:26:00,
2013-03-31 03:32:00,25.9,24.4,29.97,West,270,0.0,0.0,94,0.00,,,0.00,pywws,2013-03-31 02:32:00,
2013-03-31 03:37:00,26.1,24.6,29.97,West,270,0.0,0.0,94,0.00,,,0.00,pywws,2013-03-31 02:37:00,
2013-03-31 03:43:00,25.9,24.4,29.97,West,270,0.0,0.0,94,0.00,,,0.00,pywws,2013-03-31 02:43:00,
2013-03-31 03:49:00,25.7,24.2,29.96,West,270,0.0,0.0,94,0.00,,,0.00,pywws,2013-03-31 02:49:00,
2013-03-31 03:55:00,25.5,24.0,29.97,West,270,0.0,0.0,94,0.00,,,0.00,pywws,2013-03-31 02:55:00,
2013-03-31 04:00:00,25.5,24.0,29.96,West,270,0.0,0.0,94,0.00,,,0.00,pywws,2013-03-31 03:00:00,
2013-03-31 04:05:00,25.5,24.3,29.96,West,270,0.0,0.0,95,0.00,,,0.00,pywws,2013-03-31 03:05:00,
2013-03-31 04:11:00,25.3,24.1,29.97,West,270,0.0,0.0,95,0.00,,,0.00,pywws,2013-03-31 03:11:00,
2013-03-31 04:16:00,25.2,23.7,29.97,West,270,0.0,0.0,94,0.00,,,0.00,pywws,2013-03-31 03:16:00,
2013-03-31 04:21:00,24.8,23.3,29.97,West,270,0.0,0.0,94,0.00,,,0.00,pywws,2013-03-31 03:21:00,
2013-03-31 04:27:00,24.6,23.1,29.96,West,270,0.0,0.0,94,0.00,,,0.00,pywws,2013-03-31 03:27:00,
2013-03-31 04:33:00,24.8,23.6,29.96,West,270,0.0,0.0,95,0.00,,,0.00,pywws,2013-03-31 03:33:00,
2013-03-31 04:38:00,24.6,23.4,29.96,West,270,0.0,0.0,95,0.00,,,0.00,pywws,2013-03-31 03:38:00,
2013-03-31 04:44:00,24.6,23.4,29.96,West,270,0.0,0.0,95,0.00,,,0.00,pywws,2013-03-31 03:44:00,
2013-03-31 04:49:00,24.8,23.6,29.96,South,180,0.0,0.0,95,0.00,,,0.00,pywws,2013-03-31 03:49:00,
2013-03-31 04:56:00,24.6,23.4,29.96,South,180,0.0,0.0,95,0.00,,,0.00,pywws,2013-03-31 03:56:00,
2013-03-31 05:00:00,24.6,23.4,29.96,South,180,0.0,0.0,95,0.00,,,0.00,pywws,2013-03-31 04:00:00,
2013-03-31 05:01:00,24.6,23.4,29.97,South,180,0.0,0.0,95,0.00,,,0.00,pywws,2013-03-31 04:01:00,
2013-03-31 05:04:00,24.6,23.4,29.97,South,180,0.0,0.0,95,0.00,,,0.00,pywws,2013-03-31 04:04:00,
2013-03-31 05:09:00,24.6,23.4,29.96,South,180,0.0,0.0,95,0.00,,,0.00,pywws,2013-03-31 04:09:00,
2013-03-31 05:13:00,24.6,23.4,29.97,South,180,0.0,0.0,95,0.00,,,0.00,pywws,2013-03-31 04:13:00,
2013-03-31 05:18:00,24.6,23.6,29.97,South,180,0.0,0.0,96,0.00,,,0.00,pywws,2013-03-31 04:18:00,
2013-03-31 05:24:00,24.6,23.4,29.96,South,180,0.0,0.0,95,0.00,,,0.00,pywws,2013-03-31 04:24:00,
2013-03-31 05:30:00,24.4,23.2,29.96,South,180,0.0,0.0,95,0.00,,,0.00,pywws,2013-03-31 04:30:00,
2013-03-31 05:36:00,24.4,23.5,29.96,East,90,0.0,0.0,96,0.00,,,0.00,pywws,2013-03-31 04:36:00,
2013-03-31 05:41:00,24.3,23.3,29.96,East,90,0.0,0.0,96,0.00,,,0.00,pywws,2013-03-31 04:41:00,
2013-03-31 05:47:00,24.1,22.9,29.96,NW,315,0.0,0.0,95,0.00,,,0.00,pywws,2013-03-31 04:47:00,
2013-03-31 05:53:00,24.6,23.6,29.97,NW,315,0.0,0.0,96,0.00,,,0.00,pywws,2013-03-31 04:53:00,
2013-03-31 05:59:00,24.8,23.8,29.96,SE,135,0.0,0.0,96,0.00,,,0.00,pywws,2013-03-31 04:59:00,
2013-03-31 06:05:00,24.8,23.8,29.97,SE,135,0.0,0.0,96,0.00,,,0.00,pywws,2013-03-31 05:05:00,
2013-03-31 06:10:00,24.6,23.6,29.97,SE,135,0.0,0.0,96,0.00,,,0.00,pywws,2013-03-31 05:10:00,
2013-03-31 06:16:00,24.1,23.1,29.97,SE,135,0.0,0.0,96,0.00,,,0.00,pywws,2013-03-31 05:16:00,
2013-03-31 06:21:00,23.9,22.9,29.97,SE,135,0.0,0.0,96,0.00,,,0.00,pywws,2013-03-31 05:21:00,
2013-03-31 06:27:00,23.7,22.7,29.97,SE,135,0.0,0.0,96,0.00,,,0.00,pywws,2013-03-31 05:27:00,
2013-03-31 06:32:00,23.5,22.6,29.97,SE,135,0.0,0.0,96,0.00,,,0.00,pywws,2013-03-31 05:32:00,
2013-03-31 06:38:00,23.5,22.6,29.97,SE,135,0.0,0.0,96,0.00,,,0.00,pywws,2013-03-31 05:38:00,
2013-03-31 06:43:00,23.5,22.8,29.97,SE,135,0.0,0.0,97,0.00,,,0.00,pywws,2013-03-31 05:43:00,
2013-03-31 06:49:00,23.7,22.7,29.97,SE,135,0.0,0.0,96,0.00,,,0.00,pywws,2013-03-31 05:49:00,
2013-03-31 06:55:00,23.7,23.0,29.97,SE,135,0.0,0.0,97,0.00,,,0.00,pywws,2013-03-31 05:55:00,
2013-03-31 07:00:00,23.9,23.2,29.97,SE,135,0.0,0.0,97,0.00,,,0.00,pywws,2013-03-31 06:00:00,
2013-03-31 07:05:00,24.1,23.4,29.97,SE,135,0.0,0.0,97,0.00,,,0.00,pywws,2013-03-31 06:05:00,
2013-03-31 07:11:00,24.4,23.7,29.97,SE,135,0.0,0.0,97,0.00,,,0.00,pywws,2013-03-31 06:11:00,
2013-03-31 07:16:00,24.4,23.7,29.97,SE,135,0.0,0.0,97,0.00,,,0.00,pywws,2013-03-31 06:16:00,
2013-03-31 07:22:00,24.4,23.7,29.97,South,180,0.0,0.0,97,0.00,,,0.00,pywws,2013-03-31 06:22:00,
2013-03-31 07:27:00,24.8,24.1,29.97,South,180,0.0,0.0,97,0.00,,,0.00,pywws,2013-03-31 06:27:00,
2013-03-31 07:33:00,25.7,25.2,29.97,East,90,0.0,0.0,98,0.00,,,0.00,pywws,2013-03-31 06:33:00,
2013-03-31 07:39:00,26.1,25.3,29.97,SE,135,0.0,0.0,97,0.00,,,0.00,pywws,2013-03-31 06:39:00,
2013-03-31 07:45:00,26.6,26.1,29.97,East,90,0.0,0.7,98,0.00,,,0.00,pywws,2013-03-31 06:45:00,
2013-03-31 07:51:00,27.5,27.0,29.97,NE,45,0.0,1.6,98,0.00,,,0.00,pywws,2013-03-31 06:51:00,
2013-03-31 07:56:00,28.2,27.7,29.97,NE,45,0.0,0.0,98,0.00,,,0.00,pywws,2013-03-31 06:56:00,
2013-03-31 08:01:00,28.9,28.4,29.97,SE,135,0.0,0.7,98,0.00,,,0.00,pywws,2013-03-31 07:01:00,
2013-03-31 08:07:00,30.0,29.5,29.97,East,90,0.0,0.7,98,0.00,,,0.00,pywws,2013-03-31 07:07:00,
2013-03-31 08:13:00,32.5,32.0,29.97,East,90,0.7,2.2,98,0.00,,,0.00,pywws,2013-03-31 07:13:00,
2013-03-31 08:18:00,35.2,34.7,29.97,SE,135,0.7,2.2,98,0.00,,,0.00,pywws,2013-03-31 07:18:00,
2013-03-31 08:24:00,37.4,36.1,29.97,NW,315,0.0,0.7,95,0.00,,,0.00,pywws,2013-03-31 07:24:00,
2013-03-31 08:29:00,39.4,35.0,29.97,NE,45,1.6,6.0,84,0.00,,,0.00,pywws,2013-03-31 07:29:00,
2013-03-31 08:35:00,40.3,33.3,29.97,NE,45,2.2,5.4,76,0.00,,,0.00,pywws,2013-03-31 07:35:00,
2013-03-31 08:41:00,41.4,32.3,29.97,SE,135,1.6,3.8,70,0.00,,,0.00,pywws,2013-03-31 07:41:00,
2013-03-31 08:46:00,41.9,32.8,29.97,NE,45,1.6,3.8,70,0.00,,,0.00,pywws,2013-03-31 07:46:00,
2013-03-31 08:52:00,42.6,31.7,29.97,NE,45,0.7,4.5,65,0.00,,,0.00,pywws,2013-03-31 07:52:00,
2013-03-31 08:57:00,42.6,30.9,29.97,South,180,0.7,3.1,63,0.00,,,0.00,pywws,2013-03-31 07:57:00,
2013-03-31 09:03:00,43.3,31.2,29.97,NE,45,1.6,3.8,62,0.00,,,0.00,pywws,2013-03-31 08:03:00,
2013-03-31 09:09:00,44.2,31.2,29.96,East,90,0.7,3.1,60,0.00,,,0.00,pywws,2013-03-31 08:09:00,
2013-03-31 09:14:00,44.4,31.4,29.96,NE,45,1.6,4.5,60,0.00,,,0.00,pywws,2013-03-31 08:14:00,
2013-03-31 09:20:00,45.0,30.7,29.96,NE,45,0.7,2.2,57,0.00,,,0.00,pywws,2013-03-31 08:20:00,
2013-03-31 09:25:00,46.0,31.7,29.97,NNE,23,0.0,1.6,57,0.00,,,0.00,pywws,2013-03-31 08:25:00,
2013-03-31 09:31:00,46.0,30.8,29.96,ENE,68,2.2,5.4,55,0.00,,,0.00,pywws,2013-03-31 08:31:00,
2013-03-31 09:36:00,46.9,31.6,29.96,SW,225,2.2,3.8,55,0.00,,,0.00,pywws,2013-03-31 08:36:00,
2013-03-31 09:41:00,47.1,30.4,29.96,South,180,0.7,2.2,52,0.00,,,0.00,pywws,2013-03-31 08:41:00,
2013-03-31 09:47:00,47.3,31.0,29.96,NE,45,1.6,2.2,53,0.00,,,0.00,pywws,2013-03-31 08:47:00,
2013-03-31 09:53:00,48.2,30.4,29.96,NE,45,3.1,5.4,50,0.00,,,0.00,pywws,2013-03-31 08:53:00,
2013-03-31 09:58:00,48.9,30.1,29.96,East,90,0.0,1.6,48,0.00,,,0.00,pywws,2013-03-31 08:58:00,
2013-03-31 10:04:00,49.6,29.7,29.97,North,0,1.6,3.8,46,0.00,,,0.00,pywws,2013-03-31 09:04:00,
2013-03-31 10:09:00,51.3,30.1,29.97,NE,45,3.1,7.6,44,0.00,,,0.00,pywws,2013-03-31 09:09:00,
2013-03-31 10:15:00,50.7,27.9,29.97,SE,135,2.2,7.6,41,0.00,,,0.00,pywws,2013-03-31 09:15:00,
2013-03-31 10:21:00,49.6,28.1,29.97,ENE,68,2.2,5.4,43,0.00,,,0.00,pywws,2013-03-31 09:21:00,
2013-03-31 10:26:00,50.7,29.6,29.97,East,90,1.6,3.8,44,0.00,,,0.00,pywws,2013-03-31 09:26:00,
2013-03-31 10:32:00,50.4,26.4,29.97,SE,135,1.6,3.8,39,0.00,,,0.00,pywws,2013-03-31 09:32:00,
2013-03-31 10:37:00,49.5,26.8,29.97,East,90,3.1,9.8,41,0.00,,,0.00,pywws,2013-03-31 09:37:00,
2013-03-31 10:42:00,48.2,26.8,29.97,South,180,0.7,3.1,43,0.00,,,0.00,pywws,2013-03-31 09:42:00,
2013-03-31 10:48:00,46.6,25.3,29.97,East,90,1.6,5.4,43,0.00,,,0.00,pywws,2013-03-31 09:48:00,
2013-03-31 10:53:00,46.4,25.7,29.96,East,90,3.8,8.3,44,0.00,,,0.00,pywws,2013-03-31 09:53:00,
2013-03-31 10:59:00,48.2,25.6,29.97,East,90,3.1,6.0,41,0.00,,,0.00,pywws,2013-03-31 09:59:00,
2013-03-31 11:05:00,49.8,26.5,29.97,NE,45,1.6,5.4,40,0.00,,,0.00,pywws,2013-03-31 10:05:00,
2013-03-31 11:10:00,51.6,26.2,29.96,SE,135,2.2,5.4,37,0.00,,,0.00,pywws,2013-03-31 10:10:00,
2013-03-31 11:16:00,51.1,24.4,29.96,SE,135,3.8,6.9,35,0.00,,,0.00,pywws,2013-03-31 10:16:00,
2013-03-31 11:22:00,49.6,23.1,29.96,South,180,5.4,9.8,35,0.00,,,0.00,pywws,2013-03-31 10:22:00,
2013-03-31 11:27:00,46.6,24.7,29.96,SE,135,0.7,3.8,42,0.00,,,0.00,pywws,2013-03-31 10:27:00,
2013-03-31 11:32:00,44.6,25.1,29.96,SE,135,2.2,3.8,46,0.00,,,0.00,pywws,2013-03-31 10:32:00,
2013-03-31 11:37:00,43.7,26.3,29.96,North,0,1.6,4.5,50,0.00,,,0.00,pywws,2013-03-31 10:37:00,
2013-03-31 11:43:00,42.8,25.9,29.96,SW,225,0.0,0.7,51,0.00,,,0.00,pywws,2013-03-31 10:43:00,
2013-03-31 11:49:00,42.3,26.4,29.96,NE,45,2.2,4.5,53,0.00,,,0.00,pywws,2013-03-31 10:49:00,
2013-03-31 11:54:00,41.9,26.9,29.96,North,0,2.2,6.9,55,0.00,,,0.00,pywws,2013-03-31 10:54:00,
2013-03-31 12:00:00,41.5,27.5,29.96,NE,45,2.2,5.4,57,0.00,,,0.00,pywws,2013-03-31 11:00:00,
2013-03-31 12:05:00,41.4,27.3,29.96,South,180,3.1,5.4,57,0.00,,,0.00,pywws,2013-03-31 11:05:00,
2013-03-31 12:11:00,41.7,27.6,29.96,East,90,2.2,6.9,57,0.00,,,0.00,pywws,2013-03-31 11:11:00,
2013-03-31 12:17:00,41.9,26.5,29.96,West,270,1.6,3.8,54,0.00,,,0.00,pywws,2013-03-31 11:17:00,
2013-03-31 12:22:00,42.3,26.4,29.96,SE,135,0.7,3.1,53,0.00,,,0.00,pywws,2013-03-31 11:22:00,
2013-03-31 12:28:00,42.8,25.5,29.96,NE,45,3.8,8.3,50,0.00,,,0.00,pywws,2013-03-31 11:28:00,
2013-03-31 12:33:00,43.2,26.7,29.95,SE,135,1.6,3.1,52,0.00,,,0.00,pywws,2013-03-31 11:33:00,
2013-03-31 12:39:00,43.7,25.8,29.95,East,90,2.2,6.0,49,0.00,,,0.00,pywws,2013-03-31 11:39:00,
2013-03-31 12:45:00,43.7,25.8,29.95,NW,315,3.8,7.6,49,0.00,,,0.00,pywws,2013-03-31 11:45:00,
2013-03-31 12:50:00,43.5,25.1,29.95,NE,45,2.2,4.5,48,0.00,,,0.00,pywws,2013-03-31 11:50:00,
2013-03-31 12:56:00,43.3,25.5,29.95,SE,135,1.6,3.1,49,0.00,,,0.00,pywws,2013-03-31 11:56:00,
2013-03-31 13:02:00,43.7,26.8,29.95,SE,135,1.6,4.5,51,0.00,,,0.00,pywws,2013-03-31 12:02:00,
2013-03-31 13:07:00,43.9,26.0,29.95,East,90,3.1,6.9,49,0.00,,,0.00,pywws,2013-03-31 12:07:00,
2013-03-31 13:13:00,43.7,25.8,29.95,NE,45,0.7,2.2,49,0.00,,,0.00,pywws,2013-03-31 12:13:00,
2013-03-31 13:18:00,44.2,26.3,29.95,SE,135,1.6,4.5,49,0.00,,,0.00,pywws,2013-03-31 12:18:00,
2013-03-31 13:24:00,43.9,26.0,29.95,South,180,2.2,5.4,49,0.00,,,0.00,pywws,2013-03-31 12:24:00,
2013-03-31 13:29:00,43.3,25.5,29.96,NE,45,1.6,3.8,49,0.00,,,0.00,pywws,2013-03-31 12:29:00,
2013-03-31 13:35:00,43.9,27.4,29.95,North,0,0.7,1.6,52,0.00,,,0.00,pywws,2013-03-31 12:35:00,
2013-03-31 13:41:00,44.8,26.8,29.95,SW,225,1.6,6.0,49,0.00,,,0.00,pywws,2013-03-31 12:41:00,
2013-03-31 13:46:00,47.5,25.0,29.95,SSE,158,3.1,5.4,41,0.00,,,0.00,pywws,2013-03-31 12:46:00,
2013-03-31 13:52:00,45.7,23.9,29.94,NE,45,0.0,2.2,42,0.00,,,0.00,pywws,2013-03-31 12:52:00,
2013-03-31 13:57:00,44.8,24.2,29.94,NE,45,1.6,3.8,44,0.00,,,0.00,pywws,2013-03-31 12:57:00,
2013-03-31 14:03:00,43.7,23.8,29.95,WNW,293,2.2,4.5,45,0.00,,,0.00,pywws,2013-03-31 13:03:00,
2013-03-31 14:09:00,42.8,24.5,29.95,South,180,0.7,3.8,48,0.00,,,0.00,pywws,2013-03-31 13:09:00,
2013-03-31 14:14:00,42.4,25.6,29.95,South,180,2.2,6.0,51,0.00,,,0.00,pywws,2013-03-31 13:14:00,
2013-03-31 14:20:00,42.3,25.9,29.94,South,180,0.7,3.8,52,0.00,,,0.00,pywws,2013-03-31 13:20:00,
2013-03-31 14:25:00,42.1,26.6,29.94,South,180,0.0,0.7,54,0.00,,,0.00,pywws,2013-03-31 13:25:00,
2013-03-31 14:31:00,41.9,26.9,29.94,NE,45,0.7,2.2,55,0.00,,,0.00,pywws,2013-03-31 13:31:00,
2013-03-31 14:36:00,41.9,26.9,29.94,East,90,1.6,3.8,55,0.00,,,0.00,pywws,2013-03-31 13:36:00,
2013-03-31 14:41:00,42.4,26.5,29.94,North,0,1.6,5.4,53,0.00,,,0.00,pywws,2013-03-31 13:41:00,
2013-03-31 14:47:00,42.8,26.4,29.93,SE,135,2.2,5.4,52,0.00,,,0.00,pywws,2013-03-31 13:47:00,
2013-03-31 14:52:00,42.4,26.1,29.93,NE,45,2.2,6.0,52,0.00,,,0.00,pywws,2013-03-31 13:52:00,
2013-03-31 14:57:00,41.7,25.4,29.93,SE,135,3.1,4.5,52,0.00,,,0.00,pywws,2013-03-31 13:57:00,
2013-03-31 15:03:00,41.4,25.5,29.93,NE,45,2.2,6.9,53,0.00,,,0.00,pywws,2013-03-31 14:03:00,
2013-03-31 15:08:00,41.5,25.7,29.93,East,90,2.2,7.6,53,0.00,,,0.00,pywws,2013-03-31 14:08:00,
2013-03-31 15:13:00,42.1,26.2,29.93,NE,45,3.1,5.4,53,0.00,,,0.00,pywws,2013-03-31 14:13:00,
2013-03-31 15:19:00,42.3,25.9,29.93,North,0,2.2,6.0,52,0.00,,,0.00,pywws,2013-03-31 14:19:00,
2013-03-31 15:25:00,42.4,25.6,29.93,East,90,1.6,3.8,51,0.00,,,0.00,pywws,2013-03-31 14:25:00,
2013-03-31 15:30:00,42.4,25.6,29.92,SE,135,0.7,3.1,51,0.00,,,0.00,pywws,2013-03-31 14:30:00,
2013-03-31 15:36:00,42.4,25.1,29.93,SE,135,3.1,6.0,50,0.00,,,0.00,pywws,2013-03-31 14:36:00,
2013-03-31 15:41:00,42.4,26.5,29.92,NE,45,0.7,3.1,53,0.00,,,0.00,pywws,2013-03-31 14:41:00,
2013-03-31 15:47:00,42.3,25.4,29.92,South,180,1.6,4.5,51,0.00,,,0.00,pywws,2013-03-31 14:47:00,
2013-03-31 15:52:00,42.3,25.4,29.92,West,270,0.7,2.2,51,0.00,,,0.00,pywws,2013-03-31 14:52:00,
2013-03-31 15:57:00,42.4,25.6,29.92,SW,225,2.2,4.5,51,0.00,,,0.00,pywws,2013-03-31 14:57:00,
2013-03-31 16:03:00,42.6,24.3,29.92,North,0,1.6,4.5,48,0.00,,,0.00,pywws,2013-03-31 15:03:00,
2013-03-31 16:09:00,43.2,24.8,29.92,SW,225,0.7,3.1,48,0.00,,,0.00,pywws,2013-03-31 15:09:00,
2013-03-31 16:14:00,43.3,23.4,29.92,East,90,3.1,6.0,45,0.00,,,0.00,pywws,2013-03-31 15:14:00,
2013-03-31 16:20:00,42.8,23.5,29.91,SE,135,3.8,8.3,46,0.00,,,0.00,pywws,2013-03-31 15:20:00,
2013-03-31 16:25:00,42.3,23.5,29.91,SE,135,3.1,7.6,47,0.00,,,0.00,pywws,2013-03-31 15:25:00,
2013-03-31 16:31:00,42.3,24.5,29.91,NE,45,1.6,3.8,49,0.00,,,0.00,pywws,2013-03-31 15:31:00,
2013-03-31 16:38:00,42.4,23.7,29.91,SW,225,1.6,6.0,47,0.00,,,0.00,pywws,2013-03-31 15:38:00,
2013-03-31 16:43:00,42.3,23.5,29.91,East,90,3.1,6.0,47,0.00,,,0.00,pywws,2013-03-31 15:43:00,
2013-03-31 16:49:00,42.3,23.0,29.91,East,90,2.2,7.6,46,0.00,,,0.00,pywws,2013-03-31 15:49:00,
2013-03-31 16:54:00,42.1,23.8,29.91,NNE,23,2.2,5.4,48,0.00,,,0.00,pywws,2013-03-31 15:54:00,
2013-03-31 17:00:00,41.9,22.6,29.91,NNE,23,3.1,6.0,46,0.00,,,0.00,pywws,2013-03-31 16:00:00,
2013-03-31 17:05:00,41.5,21.8,29.91,NNW,338,4.5,8.3,45,0.00,,,0.00,pywws,2013-03-31 16:05:00,
2013-03-31 17:11:00,41.7,22.0,29.91,NE,45,2.2,6.9,45,0.00,,,0.00,pywws,2013-03-31 16:11:00,
2013-03-31 17:17:00,43.2,22.7,29.91,SE,135,1.6,5.4,44,0.00,,,0.00,pywws,2013-03-31 16:17:00,
2013-03-31 17:22:00,43.2,22.7,29.90,SE,135,2.2,5.4,44,0.00,,,0.00,pywws,2013-03-31 16:22:00,
2013-03-31 17:28:00,42.4,22.1,29.90,NNE,23,1.6,3.1,44,0.00,,,0.00,pywws,2013-03-31 16:28:00,
2013-03-31 17:33:00,41.9,22.6,29.91,East,90,1.6,5.4,46,0.00,,,0.00,pywws,2013-03-31 16:33:00,
2013-03-31 17:38:00,41.5,22.8,29.90,WNW,293,2.2,6.0,47,0.00,,,0.00,pywws,2013-03-31 16:38:00,
2013-03-31 17:44:00,41.2,22.0,29.90,NW,315,1.6,7.6,46,0.00,,,0.00,pywws,2013-03-31 16:44:00,
2013-03-31 17:49:00,41.0,21.3,29.91,East,90,1.6,3.8,45,0.00,,,0.00,pywws,2013-03-31 16:49:00,
2013-03-31 17:55:00,41.0,21.8,29.90,East,90,0.7,2.2,46,0.00,,,0.00,pywws,2013-03-31 16:55:00,
2013-03-31 18:01:00,42.4,22.1,29.90,SE,135,1.6,5.4,44,0.00,,,0.00,pywws,2013-03-31 17:01:00,
2013-03-31 18:06:00,42.1,20.7,29.90,NE,45,3.1,7.6,42,0.00,,,0.00,pywws,2013-03-31 17:06:00,
2013-03-31 18:12:00,41.4,21.1,29.89,South,180,3.1,5.4,44,0.00,,,0.00,pywws,2013-03-31 17:12:00,
2013-03-31 18:17:00,42.1,20.7,29.90,North,0,2.2,4.5,42,0.00,,,0.00,pywws,2013-03-31 17:17:00,
2013-03-31 18:23:00,41.5,20.7,29.90,NE,45,4.5,7.6,43,0.00,,,0.00,pywws,2013-03-31 17:23:00,
2013-03-31 18:29:00,41.0,20.8,29.89,SE,135,3.1,6.9,44,0.00,,,0.00,pywws,2013-03-31 17:29:00,
2013-03-31 18:34:00,40.6,21.0,29.90,NE,45,3.1,5.4,45,0.00,,,0.00,pywws,2013-03-31 17:34:00,
2013-03-31 18:39:00,40.8,21.1,29.90,North,0,3.8,7.6,45,0.00,,,0.00,pywws,2013-03-31 17:39:00,
2013-03-31 18:45:00,40.6,21.0,29.90,NE,45,3.1,6.9,45,0.00,,,0.00,pywws,2013-03-31 17:45:00,
2013-03-31 18:50:00,40.3,21.2,29.90,NE,45,4.5,9.8,46,0.00,,,0.00,pywws,2013-03-31 17:50:00,
2013-03-31 18:55:00,40.1,22.0,29.90,NE,45,1.6,3.8,48,0.00,,,0.00,pywws,2013-03-31 17:55:00,
2013-03-31 19:01:00,39.9,22.8,29.90,NE,45,2.2,6.0,50,0.00,,,0.00,pywws,2013-03-31 18:01:00,
2013-03-31 19:06:00,39.7,23.1,29.90,SE,135,2.2,6.0,51,0.00,,,0.00,pywws,2013-03-31 18:06:00,
2013-03-31 19:12:00,39.6,23.9,29.90,SE,135,0.7,3.8,53,0.00,,,0.00,pywws,2013-03-31 18:12:00,
2013-03-31 19:18:00,39.2,23.5,29.90,NE,45,1.6,3.8,53,0.00,,,0.00,pywws,2013-03-31 18:18:00,
2013-03-31 19:23:00,39.0,24.2,29.89,SE,135,2.2,6.0,55,0.00,,,0.00,pywws,2013-03-31 18:23:00,
2013-03-31 19:29:00,38.8,24.9,29.90,South,180,3.8,8.3,57,0.00,,,0.00,pywws,2013-03-31 18:29:00,
2013-03-31 19:34:00,38.7,24.8,29.90,North,0,1.6,4.5,57,0.00,,,0.00,pywws,2013-03-31 18:34:00,
2013-03-31 19:40:00,38.5,25.4,29.90,SE,135,2.2,6.0,59,0.00,,,0.00,pywws,2013-03-31 18:40:00,
2013-03-31 19:45:00,38.3,25.2,29.90,NW,315,0.0,2.2,59,0.00,,,0.00,pywws,2013-03-31 18:45:00,
2013-03-31 19:51:00,38.3,25.6,29.90,NE,45,2.2,6.0,60,0.00,,,0.00,pywws,2013-03-31 18:51:00,
2013-03-31 19:57:00,38.1,25.9,29.90,East,90,2.2,3.8,61,0.00,,,0.00,pywws,2013-03-31 18:57:00,
2013-03-31 20:02:00,38.1,26.3,29.89,NE,45,1.6,5.4,62,0.00,,,0.00,pywws,2013-03-31 19:02:00,
2013-03-31 20:08:00,37.9,26.5,29.90,NE,45,2.2,4.5,63,0.00,,,0.00,pywws,2013-03-31 19:08:00,
2013-03-31 20:13:00,37.9,26.5,29.90,SW,225,0.7,3.1,63,0.00,,,0.00,pywws,2013-03-31 19:13:00,
2013-03-31 20:19:00,37.9,26.9,29.90,South,180,0.7,3.8,64,0.00,,,0.00,pywws,2013-03-31 19:19:00,
2013-03-31 20:25:00,37.8,26.7,29.90,SE,135,0.7,3.8,64,0.00,,,0.00,pywws,2013-03-31 19:25:00,
2013-03-31 20:30:00,37.6,26.9,29.91,SE,135,1.6,3.1,65,0.00,,,0.00,pywws,2013-03-31 19:30:00,
2013-03-31 20:36:00,37.6,27.3,29.90,NE,45,2.2,4.5,66,0.00,,,0.00,pywws,2013-03-31 19:36:00,
2013-03-31 20:41:00,37.6,27.3,29.90,SE,135,0.7,3.1,66,0.00,,,0.00,pywws,2013-03-31 19:41:00,
2013-03-31 20:47:00,37.4,27.5,29.91,East,90,1.6,4.5,67,0.00,,,0.00,pywws,2013-03-31 19:47:00,
2013-03-31 20:53:00,37.4,27.5,29.91,ENE,68,2.2,5.4,67,0.00,,,0.00,pywws,2013-03-31 19:53:00,
2013-03-31 20:58:00,37.2,27.3,29.91,SE,135,0.7,4.5,67,0.00,,,0.00,pywws,2013-03-31 19:58:00,
2013-03-31 21:04:00,37.2,27.6,29.91,NE,45,1.6,3.8,68,0.00,,,0.00,pywws,2013-03-31 20:04:00,
2013-03-31 21:10:00,37.2,28.0,29.90,NW,315,4.5,10.7,69,0.00,,,0.00,pywws,2013-03-31 20:10:00,
2013-03-31 21:15:00,37.2,28.0,29.90,NE,45,3.8,6.9,69,0.00,,,0.00,pywws,2013-03-31 20:15:00,
2013-03-31 21:21:00,37.2,28.4,29.90,SE,135,2.2,7.6,70,0.00,,,0.00,pywws,2013-03-31 20:21:00,
2013-03-31 21:26:00,37.2,28.7,29.91,NE,45,3.1,6.0,71,0.00,,,0.00,pywws,2013-03-31 20:26:00,
2013-03-31 21:32:00,37.2,28.7,29.91,NE,45,0.0,2.2,71,0.00,,,0.00,pywws,2013-03-31 20:32:00,
2013-03-31 21:37:00,37.0,28.9,29.91,NE,45,2.2,5.4,72,0.00,,,0.00,pywws,2013-03-31 20:37:00,
2013-03-31 21:43:00,37.0,28.9,29.90,SE,135,3.8,6.9,72,0.00,,,0.00,pywws,2013-03-31 20:43:00,
2013-03-31 21:49:00,36.7,28.9,29.90,East,90,1.6,7.6,73,0.00,,,0.00,pywws,2013-03-31 20:49:00,
2013-03-31 21:55:00,36.1,28.7,29.90,East,90,1.6,3.8,74,0.00,,,0.00,pywws,2013-03-31 20:55:00,
2013-03-31 22:01:00,36.0,28.8,29.90,NE,45,0.7,3.8,75,0.00,,,0.00,pywws,2013-03-31 21:01:00,
2013-03-31 22:06:00,36.0,29.1,29.90,East,90,1.6,3.8,76,0.00,,,0.00,pywws,2013-03-31 21:06:00,
2013-03-31 22:12:00,36.0,29.1,29.90,North,0,3.1,6.0,76,0.00,,,0.00,pywws,2013-03-31 21:12:00,
2013-03-31 22:17:00,36.1,29.3,29.90,NW,315,0.0,3.1,76,0.00,,,0.00,pywws,2013-03-31 21:17:00,
2013-03-31 22:23:00,36.0,29.1,29.90,NE,45,0.7,3.8,76,0.00,,,0.00,pywws,2013-03-31 21:23:00,
2013-03-31 22:29:00,36.1,29.6,29.90,NE,45,1.6,4.5,77,0.00,,,0.00,pywws,2013-03-31 21:29:00,
2013-03-31 22:35:00,36.0,29.5,29.90,North,0,3.1,6.9,77,0.00,,,0.00,pywws,2013-03-31 21:35:00,
2013-03-31 22:41:00,36.0,29.5,29.89,NE,45,1.6,3.8,77,0.00,,,0.00,pywws,2013-03-31 21:41:00,
2013-03-31 22:47:00,35.8,29.3,29.89,NE,45,0.7,3.8,77,0.00,,,0.00,pywws,2013-03-31 21:47:00,
2013-03-31 22:52:00,35.4,29.3,29.90,NE,45,2.2,6.9,78,0.00,,,0.00,pywws,2013-03-31 21:52:00,
2013-03-31 22:57:00,35.4,29.6,29.89,East,90,3.1,6.0,79,0.00,,,0.00,pywws,2013-03-31 21:57:00,
2013-03-31 23:03:00,35.4,29.6,29.89,North,0,0.7,2.2,79,0.00,,,0.00,pywws,2013-03-31 22:03:00,
2013-03-31 23:09:00,35.2,29.7,29.89,SE,135,0.7,3.8,80,0.00,,,0.00,pywws,2013-03-31 22:09:00,
2013-03-31 23:15:00,34.9,29.3,29.89,East,90,0.0,2.2,80,0.00,,,0.00,pywws,2013-03-31 22:15:00,
2013-03-31 23:21:00,34.3,28.8,29.89,South,180,0.0,1.6,80,0.00,,,0.00,pywws,2013-03-31 22:21:00,
2013-03-31 23:26:00,34.0,28.8,29.89,East,90,0.7,2.2,81,0.00,,,0.00,pywws,2013-03-31 22:26:00,
2013-03-31 23:32:00,33.8,28.9,29.89,NE,45,1.6,3.1,82,0.00,,,0.00,pywws,2013-03-31 22:32:00,
2013-03-31 23:37:00,33.6,29.0,29.89,NE,45,0.7,1.6,83,0.00,,,0.00,pywws,2013-03-31 22:37:00,
2013-03-31 23:43:00,33.4,28.8,29.89,North,0,1.6,3.1,83,0.00,,,0.00,pywws,2013-03-31 22:43:00,
2013-03-31 23:49:00,33.1,28.5,29.89,North,0,0.0,2.2,83,0.00,,,0.00,pywws,2013-03-31 22:49:00,
2013-03-31 23:55:00,32.7,28.1,29.89,East,90,0.7,3.1,83,0.00,,,0.00,pywws,2013-03-31 22:55:00,